sensor_id;sensor_type;location;lat;lon;timestamp;temperature;humidity
20171;DHT22;10245;51.344;6.620;2023-05-01T00:01:46;11.40;72.00
20171;DHT22;10245;51.344;6.620;2023-05-01T00:04:09;11.30;73.10
20171;DHT22;10245;51.344;6.620;2023-05-01T00:06:33;11.30;72.50
20171;DHT22;10245;51.344;6.620;2023-05-01T00:08:58;11.30;73.30
20171;DHT22;10245;51.344;6.620;2023-05-01T00:11:22;11.20;72.90
20171;DHT22;10245;51.344;6.620;2023-05-01T00:13:45;11.20;73.80
20171;DHT22;10245;51.344;6.620;2023-05-01T00:16:09;11.20;73.60
20171;DHT22;10245;51.344;6.620;2023-05-01T00:18:32;11.20;73.80
20171;DHT22;10245;51.344;6.620;2023-05-01T00:20:56;11.10;74.20
20171;DHT22;10245;51.344;6.620;2023-05-01T00:23:19;11.00;75.10
20171;DHT22;10245;51.344;6.620;2023-05-01T00:25:43;11.00;75.30
20171;DHT22;10245;51.344;6.620;2023-05-01T00:28:07;10.90;74.70
20171;DHT22;10245;51.344;6.620;2023-05-01T00:30:31;10.90;75.70
20171;DHT22;10245;51.344;6.620;2023-05-01T00:32:55;10.80;76.00
20171;DHT22;10245;51.344;6.620;2023-05-01T00:35:19;10.80;76.20
20171;DHT22;10245;51.344;6.620;2023-05-01T00:37:42;10.70;76.20
20171;DHT22;10245;51.344;6.620;2023-05-01T00:40:06;10.60;76.70
20171;DHT22;10245;51.344;6.620;2023-05-01T00:42:35;10.50;76.70
20171;DHT22;10245;51.344;6.620;2023-05-01T00:45:00;10.50;77.00
20171;DHT22;10245;51.344;6.620;2023-05-01T00:47:23;10.50;77.00
20171;DHT22;10245;51.344;6.620;2023-05-01T00:49:47;10.50;77.20
20171;DHT22;10245;51.344;6.620;2023-05-01T00:52:12;10.40;77.70
20171;DHT22;10245;51.344;6.620;2023-05-01T00:54:35;10.40;77.40
20171;DHT22;10245;51.344;6.620;2023-05-01T00:56:59;10.30;77.40
20171;DHT22;10245;51.344;6.620;2023-05-01T00:59:24;10.20;78.40
20171;DHT22;10245;51.344;6.620;2023-05-01T01:01:47;10.10;78.00
20171;DHT22;10245;51.344;6.620;2023-05-01T01:04:10;10.10;78.20
20171;DHT22;10245;51.344;6.620;2023-05-01T01:06:48;10.10;78.30
20171;DHT22;10245;51.344;6.620;2023-05-01T01:09:22;10.10;78.10
20171;DHT22;10245;51.344;6.620;2023-05-01T01:11:56;10.10;78.40
20171;DHT22;10245;51.344;6.620;2023-05-01T01:14:33;10.10;79.20
20171;DHT22;10245;51.344;6.620;2023-05-01T01:17:06;10.00;78.80
20171;DHT22;10245;51.344;6.620;2023-05-01T01:22:38;10.00;80.00
20171;DHT22;10245;51.344;6.620;2023-05-01T01:28:49;9.90;80.30
20171;DHT22;10245;51.344;6.620;2023-05-01T01:31:23;9.90;81.00
20171;DHT22;10245;51.344;6.620;2023-05-01T01:33:59;9.80;81.80
20171;DHT22;10245;51.344;6.620;2023-05-01T01:36:33;9.80;80.70
20171;DHT22;10245;51.344;6.620;2023-05-01T01:39:08;9.80;81.00
20171;DHT22;10245;51.344;6.620;2023-05-01T01:41:34;9.80;81.30
20171;DHT22;10245;51.344;6.620;2023-05-01T01:44:03;9.90;81.90
20171;DHT22;10245;51.344;6.620;2023-05-01T01:46:34;9.90;81.10
20171;DHT22;10245;51.344;6.620;2023-05-01T01:49:02;9.90;81.30
20171;DHT22;10245;51.344;6.620;2023-05-01T01:51:29;9.90;81.80
20171;DHT22;10245;51.344;6.620;2023-05-01T01:53:56;9.90;82.10
20171;DHT22;10245;51.344;6.620;2023-05-01T01:56:21;9.90;82.30
20171;DHT22;10245;51.344;6.620;2023-05-01T01:58:47;9.90;82.20
20171;DHT22;10245;51.344;6.620;2023-05-01T02:01:14;9.90;82.20
20171;DHT22;10245;51.344;6.620;2023-05-01T02:03:39;9.90;82.40
20171;DHT22;10245;51.344;6.620;2023-05-01T02:06:05;9.90;82.40
20171;DHT22;10245;51.344;6.620;2023-05-01T02:08:30;9.80;82.70
20171;DHT22;10245;51.344;6.620;2023-05-01T02:10:55;9.80;82.40
20171;DHT22;10245;51.344;6.620;2023-05-01T02:13:23;9.90;82.50
20171;DHT22;10245;51.344;6.620;2023-05-01T02:15:49;9.90;82.50
20171;DHT22;10245;51.344;6.620;2023-05-01T02:18:13;9.90;82.40
20171;DHT22;10245;51.344;6.620;2023-05-01T02:20:37;9.90;82.80
20171;DHT22;10245;51.344;6.620;2023-05-01T02:23:04;9.80;82.60
20171;DHT22;10245;51.344;6.620;2023-05-01T02:25:33;9.70;81.80
20171;DHT22;10245;51.344;6.620;2023-05-01T02:28:00;9.90;81.40
20171;DHT22;10245;51.344;6.620;2023-05-01T02:30:24;9.90;82.10
20171;DHT22;10245;51.344;6.620;2023-05-01T02:32:48;9.80;82.60
20171;DHT22;10245;51.344;6.620;2023-05-01T02:35:11;9.70;82.50
20171;DHT22;10245;51.344;6.620;2023-05-01T02:37:35;9.70;82.50
20171;DHT22;10245;51.344;6.620;2023-05-01T02:40:01;9.70;82.70
20171;DHT22;10245;51.344;6.620;2023-05-01T02:42:25;9.70;83.00
20171;DHT22;10245;51.344;6.620;2023-05-01T02:44:54;9.60;82.90
20171;DHT22;10245;51.344;6.620;2023-05-01T02:47:21;9.60;82.60
20171;DHT22;10245;51.344;6.620;2023-05-01T02:49:46;9.50;83.50
20171;DHT22;10245;51.344;6.620;2023-05-01T02:52:11;9.50;83.90
20171;DHT22;10245;51.344;6.620;2023-05-01T02:54:35;9.50;84.10
20171;DHT22;10245;51.344;6.620;2023-05-01T02:57:02;9.50;84.40
20171;DHT22;10245;51.344;6.620;2023-05-01T02:59:26;9.40;84.00
20171;DHT22;10245;51.344;6.620;2023-05-01T03:01:50;9.40;84.20
20171;DHT22;10245;51.344;6.620;2023-05-01T03:04:14;9.40;84.60
20171;DHT22;10245;51.344;6.620;2023-05-01T03:06:38;9.30;84.80
20171;DHT22;10245;51.344;6.620;2023-05-01T03:09:01;9.20;84.90
20171;DHT22;10245;51.344;6.620;2023-05-01T03:11:25;9.30;84.70
20171;DHT22;10245;51.344;6.620;2023-05-01T03:13:49;9.20;84.80
20171;DHT22;10245;51.344;6.620;2023-05-01T03:16:13;9.20;85.20
20171;DHT22;10245;51.344;6.620;2023-05-01T03:18:36;9.10;85.50
20171;DHT22;10245;51.344;6.620;2023-05-01T03:20:59;9.10;85.30
20171;DHT22;10245;51.344;6.620;2023-05-01T03:23:22;9.10;85.50
20171;DHT22;10245;51.344;6.620;2023-05-01T03:25:46;9.10;85.50
20171;DHT22;10245;51.344;6.620;2023-05-01T03:28:10;9.10;85.50
20171;DHT22;10245;51.344;6.620;2023-05-01T03:30:35;9.00;85.80
20171;DHT22;10245;51.344;6.620;2023-05-01T03:32:58;9.00;85.90
20171;DHT22;10245;51.344;6.620;2023-05-01T03:35:24;9.00;86.10
20171;DHT22;10245;51.344;6.620;2023-05-01T03:37:48;9.00;86.20
20171;DHT22;10245;51.344;6.620;2023-05-01T03:40:37;8.90;86.10
20171;DHT22;10245;51.344;6.620;2023-05-01T03:43:21;8.90;86.10
20171;DHT22;10245;51.344;6.620;2023-05-01T03:45:48;8.90;86.10
20171;DHT22;10245;51.344;6.620;2023-05-01T03:48:12;8.90;86.20
20171;DHT22;10245;51.344;6.620;2023-05-01T03:50:35;8.90;85.90
20171;DHT22;10245;51.344;6.620;2023-05-01T03:52:59;8.80;85.80
20171;DHT22;10245;51.344;6.620;2023-05-01T03:55:22;8.80;86.00
20171;DHT22;10245;51.344;6.620;2023-05-01T03:57:46;8.80;85.90
20171;DHT22;10245;51.344;6.620;2023-05-01T04:00:11;8.70;86.30
20171;DHT22;10245;51.344;6.620;2023-05-01T04:02:41;8.70;86.60
20171;DHT22;10245;51.344;6.620;2023-05-01T04:05:09;8.70;86.90
20171;DHT22;10245;51.344;6.620;2023-05-01T04:07:34;8.60;86.90
20171;DHT22;10245;51.344;6.620;2023-05-01T04:09:58;8.70;86.60
20171;DHT22;10245;51.344;6.620;2023-05-01T04:12:22;8.60;86.50
20171;DHT22;10245;51.344;6.620;2023-05-01T04:14:45;8.70;86.90
20171;DHT22;10245;51.344;6.620;2023-05-01T04:17:09;8.60;86.80
20171;DHT22;10245;51.344;6.620;2023-05-01T04:19:34;8.60;87.10
20171;DHT22;10245;51.344;6.620;2023-05-01T04:21:58;8.60;87.20
20171;DHT22;10245;51.344;6.620;2023-05-01T04:24:24;8.50;87.30
20171;DHT22;10245;51.344;6.620;2023-05-01T04:26:48;8.50;87.10
20171;DHT22;10245;51.344;6.620;2023-05-01T04:29:11;8.50;87.30
20171;DHT22;10245;51.344;6.620;2023-05-01T04:31:34;8.50;87.30
20171;DHT22;10245;51.344;6.620;2023-05-01T04:33:58;8.50;87.30
20171;DHT22;10245;51.344;6.620;2023-05-01T04:36:23;8.60;87.60
20171;DHT22;10245;51.344;6.620;2023-05-01T04:38:47;8.60;87.70
20171;DHT22;10245;51.344;6.620;2023-05-01T04:41:11;8.60;87.50
20171;DHT22;10245;51.344;6.620;2023-05-01T04:43:34;8.60;87.40
20171;DHT22;10245;51.344;6.620;2023-05-01T04:45:58;8.70;87.20
20171;DHT22;10245;51.344;6.620;2023-05-01T04:48:21;8.70;87.10
20171;DHT22;10245;51.344;6.620;2023-05-01T04:50:45;8.70;86.70
20171;DHT22;10245;51.344;6.620;2023-05-01T04:53:09;8.90;86.80
20171;DHT22;10245;51.344;6.620;2023-05-01T04:55:34;8.80;86.70
20171;DHT22;10245;51.344;6.620;2023-05-01T04:58:06;8.90;87.00
20171;DHT22;10245;51.344;6.620;2023-05-01T05:00:30;8.90;87.10
20171;DHT22;10245;51.344;6.620;2023-05-01T05:02:54;9.00;87.00
20171;DHT22;10245;51.344;6.620;2023-05-01T05:05:19;9.00;86.80
20171;DHT22;10245;51.344;6.620;2023-05-01T05:07:43;9.00;86.60
20171;DHT22;10245;51.344;6.620;2023-05-01T05:10:28;9.00;86.20
20171;DHT22;10245;51.344;6.620;2023-05-01T05:13:29;9.10;86.40
20171;DHT22;10245;51.344;6.620;2023-05-01T05:15:55;9.20;86.50
20171;DHT22;10245;51.344;6.620;2023-05-01T05:18:20;9.20;86.40
20171;DHT22;10245;51.344;6.620;2023-05-01T05:20:45;9.30;86.40
20171;DHT22;10245;51.344;6.620;2023-05-01T05:23:08;9.40;86.60
20171;DHT22;10245;51.344;6.620;2023-05-01T05:25:33;9.50;86.60
20171;DHT22;10245;51.344;6.620;2023-05-01T05:27:56;9.50;86.40
20171;DHT22;10245;51.344;6.620;2023-05-01T05:30:21;9.60;86.30
20171;DHT22;10245;51.344;6.620;2023-05-01T05:32:45;9.80;85.90
20171;DHT22;10245;51.344;6.620;2023-05-01T05:35:09;9.90;85.30
20171;DHT22;10245;51.344;6.620;2023-05-01T05:37:32;10.00;84.50
20171;DHT22;10245;51.344;6.620;2023-05-01T05:39:55;10.10;85.00
20171;DHT22;10245;51.344;6.620;2023-05-01T05:42:20;10.20;84.40
20171;DHT22;10245;51.344;6.620;2023-05-01T05:44:44;10.40;83.40
20171;DHT22;10245;51.344;6.620;2023-05-01T05:47:07;10.50;83.60
20171;DHT22;10245;51.344;6.620;2023-05-01T05:49:31;10.50;82.40
20171;DHT22;10245;51.344;6.620;2023-05-01T05:51:54;10.80;81.50
20171;DHT22;10245;51.344;6.620;2023-05-01T05:54:18;10.90;81.10
20171;DHT22;10245;51.344;6.620;2023-05-01T05:56:42;11.10;81.10
20171;DHT22;10245;51.344;6.620;2023-05-01T05:59:07;11.20;80.50
20171;DHT22;10245;51.344;6.620;2023-05-01T06:01:31;11.40;78.10
20171;DHT22;10245;51.344;6.620;2023-05-01T06:03:54;11.60;77.50
20171;DHT22;10245;51.344;6.620;2023-05-01T06:06:19;12.00;74.40
20171;DHT22;10245;51.344;6.620;2023-05-01T06:08:43;12.00;74.50
20171;DHT22;10245;51.344;6.620;2023-05-01T06:11:07;12.00;74.20
20171;DHT22;10245;51.344;6.620;2023-05-01T06:13:32;12.10;74.10
20171;DHT22;10245;51.344;6.620;2023-05-01T06:15:57;12.10;74.70
20171;DHT22;10245;51.344;6.620;2023-05-01T06:18:21;12.20;74.30
20171;DHT22;10245;51.344;6.620;2023-05-01T06:20:44;12.30;74.90
20171;DHT22;10245;51.344;6.620;2023-05-01T06:23:08;12.40;72.10
20171;DHT22;10245;51.344;6.620;2023-05-01T06:25:40;12.50;73.70
20171;DHT22;10245;51.344;6.620;2023-05-01T06:28:04;12.50;72.00
20171;DHT22;10245;51.344;6.620;2023-05-01T06:30:28;12.60;71.30
20171;DHT22;10245;51.344;6.620;2023-05-01T06:32:53;12.70;71.80
20171;DHT22;10245;51.344;6.620;2023-05-01T06:35:17;12.80;70.70
20171;DHT22;10245;51.344;6.620;2023-05-01T06:37:40;12.80;70.50
20171;DHT22;10245;51.344;6.620;2023-05-01T06:40:06;12.90;71.00
20171;DHT22;10245;51.344;6.620;2023-05-01T06:42:31;13.00;68.50
20171;DHT22;10245;51.344;6.620;2023-05-01T06:44:56;13.00;69.90
20171;DHT22;10245;51.344;6.620;2023-05-01T06:47:19;13.10;69.10
20171;DHT22;10245;51.344;6.620;2023-05-01T06:49:44;13.10;68.70
20171;DHT22;10245;51.344;6.620;2023-05-01T06:52:07;13.20;68.70
20171;DHT22;10245;51.344;6.620;2023-05-01T06:54:31;13.20;68.10
20171;DHT22;10245;51.344;6.620;2023-05-01T06:56:54;13.30;68.20
20171;DHT22;10245;51.344;6.620;2023-05-01T06:59:17;13.40;67.10
20171;DHT22;10245;51.344;6.620;2023-05-01T07:01:41;13.50;67.40
20171;DHT22;10245;51.344;6.620;2023-05-01T07:04:05;13.60;67.40
20171;DHT22;10245;51.344;6.620;2023-05-01T07:06:29;13.60;66.40
20171;DHT22;10245;51.344;6.620;2023-05-01T07:08:53;13.60;68.30
20171;DHT22;10245;51.344;6.620;2023-05-01T07:11:16;13.80;67.20
20171;DHT22;10245;51.344;6.620;2023-05-01T07:13:41;13.80;66.60
20171;DHT22;10245;51.344;6.620;2023-05-01T07:16:05;13.70;66.60
20171;DHT22;10245;51.344;6.620;2023-05-01T07:18:29;13.70;66.70
20171;DHT22;10245;51.344;6.620;2023-05-01T07:20:52;13.70;67.30
20171;DHT22;10245;51.344;6.620;2023-05-01T07:23:17;13.80;66.50
20171;DHT22;10245;51.344;6.620;2023-05-01T07:25:44;13.80;67.20
20171;DHT22;10245;51.344;6.620;2023-05-01T07:28:07;13.90;66.20
20171;DHT22;10245;51.344;6.620;2023-05-01T07:30:31;14.00;65.80
20171;DHT22;10245;51.344;6.620;2023-05-01T07:32:54;14.00;65.00
20171;DHT22;10245;51.344;6.620;2023-05-01T07:35:18;14.00;65.20
20171;DHT22;10245;51.344;6.620;2023-05-01T07:37:41;14.00;64.60
20171;DHT22;10245;51.344;6.620;2023-05-01T07:40:07;14.20;65.70
20171;DHT22;10245;51.344;6.620;2023-05-01T07:42:30;14.30;65.70
20171;DHT22;10245;51.344;6.620;2023-05-01T07:44:54;14.30;65.80
20171;DHT22;10245;51.344;6.620;2023-05-01T07:47:17;14.40;64.70
20171;DHT22;10245;51.344;6.620;2023-05-01T07:49:41;14.50;66.20
20171;DHT22;10245;51.344;6.620;2023-05-01T07:52:04;14.50;65.80
20171;DHT22;10245;51.344;6.620;2023-05-01T07:54:29;14.60;64.90
20171;DHT22;10245;51.344;6.620;2023-05-01T07:56:53;14.80;63.90
20171;DHT22;10245;51.344;6.620;2023-05-01T07:59:17;14.80;65.10
20171;DHT22;10245;51.344;6.620;2023-05-01T08:01:40;14.60;63.10
20171;DHT22;10245;51.344;6.620;2023-05-01T08:04:04;14.90;62.50
20171;DHT22;10245;51.344;6.620;2023-05-01T08:06:27;14.90;63.90
20171;DHT22;10245;51.344;6.620;2023-05-01T08:08:50;14.90;63.10
20171;DHT22;10245;51.344;6.620;2023-05-01T08:11:14;14.70;63.00
20171;DHT22;10245;51.344;6.620;2023-05-01T08:13:38;14.80;63.00
20171;DHT22;10245;51.344;6.620;2023-05-01T08:16:03;15.20;62.30
20171;DHT22;10245;51.344;6.620;2023-05-01T08:18:26;15.50;63.00
20171;DHT22;10245;51.344;6.620;2023-05-01T08:20:50;15.40;62.80
20171;DHT22;10245;51.344;6.620;2023-05-01T08:23:13;15.50;62.80
20171;DHT22;10245;51.344;6.620;2023-05-01T08:25:37;15.40;62.40
20171;DHT22;10245;51.344;6.620;2023-05-01T08:28:00;15.30;61.20
20171;DHT22;10245;51.344;6.620;2023-05-01T08:30:25;15.50;61.40
20171;DHT22;10245;51.344;6.620;2023-05-01T08:32:48;15.50;61.40
20171;DHT22;10245;51.344;6.620;2023-05-01T08:35:12;15.70;61.40
20171;DHT22;10245;51.344;6.620;2023-05-01T08:37:35;16.00;61.50
20171;DHT22;10245;51.344;6.620;2023-05-01T08:39:59;16.00;59.30
20171;DHT22;10245;51.344;6.620;2023-05-01T08:42:25;16.00;61.80
20171;DHT22;10245;51.344;6.620;2023-05-01T08:44:52;16.10;63.50
20171;DHT22;10245;51.344;6.620;2023-05-01T08:47:21;15.90;63.10
20171;DHT22;10245;51.344;6.620;2023-05-01T08:49:45;16.10;61.10
20171;DHT22;10245;51.344;6.620;2023-05-01T08:52:13;16.00;61.00
20171;DHT22;10245;51.344;6.620;2023-05-01T08:54:39;16.20;61.10
20171;DHT22;10245;51.344;6.620;2023-05-01T08:57:05;16.10;62.90
20171;DHT22;10245;51.344;6.620;2023-05-01T08:59:33;16.20;61.30
20171;DHT22;10245;51.344;6.620;2023-05-01T09:02:00;16.40;62.00
20171;DHT22;10245;51.344;6.620;2023-05-01T09:04:28;16.10;60.70
20171;DHT22;10245;51.344;6.620;2023-05-01T09:06:53;16.00;60.20
20171;DHT22;10245;51.344;6.620;2023-05-01T09:09:17;16.30;60.10
20171;DHT22;10245;51.344;6.620;2023-05-01T09:11:44;16.20;61.20
20171;DHT22;10245;51.344;6.620;2023-05-01T09:14:09;16.30;61.70
20171;DHT22;10245;51.344;6.620;2023-05-01T09:16:33;16.20;60.70
20171;DHT22;10245;51.344;6.620;2023-05-01T09:18:57;16.60;61.70
20171;DHT22;10245;51.344;6.620;2023-05-01T09:21:22;16.50;57.60
20171;DHT22;10245;51.344;6.620;2023-05-01T09:23:49;16.50;58.70
20171;DHT22;10245;51.344;6.620;2023-05-01T09:26:14;16.40;60.00
20171;DHT22;10245;51.344;6.620;2023-05-01T09:28:39;16.50;58.00
20171;DHT22;10245;51.344;6.620;2023-05-01T09:31:19;16.90;58.40
20171;DHT22;10245;51.344;6.620;2023-05-01T09:33:51;16.90;59.00
20171;DHT22;10245;51.344;6.620;2023-05-01T09:36:16;17.30;56.80
20171;DHT22;10245;51.344;6.620;2023-05-01T09:38:42;17.30;59.50
20171;DHT22;10245;51.344;6.620;2023-05-01T09:41:05;17.30;58.30
20171;DHT22;10245;51.344;6.620;2023-05-01T09:43:30;17.60;56.20
20171;DHT22;10245;51.344;6.620;2023-05-01T09:46:01;18.00;58.50
20171;DHT22;10245;51.344;6.620;2023-05-01T09:48:26;17.70;56.70
20171;DHT22;10245;51.344;6.620;2023-05-01T09:50:49;18.00;55.60
20171;DHT22;10245;51.344;6.620;2023-05-01T09:53:13;17.60;54.80
20171;DHT22;10245;51.344;6.620;2023-05-01T09:55:37;17.80;57.30
20171;DHT22;10245;51.344;6.620;2023-05-01T09:58:01;18.00;58.50
20171;DHT22;10245;51.344;6.620;2023-05-01T10:00:25;18.10;58.00
20171;DHT22;10245;51.344;6.620;2023-05-01T10:02:48;18.50;56.20
20171;DHT22;10245;51.344;6.620;2023-05-01T10:05:13;18.00;54.10
20171;DHT22;10245;51.344;6.620;2023-05-01T10:07:37;18.30;56.90
20171;DHT22;10245;51.344;6.620;2023-05-01T10:10:17;18.20;56.20
20171;DHT22;10245;51.344;6.620;2023-05-01T10:12:42;18.00;55.40
20171;DHT22;10245;51.344;6.620;2023-05-01T10:15:06;18.30;55.90
20171;DHT22;10245;51.344;6.620;2023-05-01T10:17:48;19.00;54.40
20171;DHT22;10245;51.344;6.620;2023-05-01T10:20:12;18.50;55.70
20171;DHT22;10245;51.344;6.620;2023-05-01T10:22:36;19.10;54.70
20171;DHT22;10245;51.344;6.620;2023-05-01T10:24:59;19.60;53.70
20171;DHT22;10245;51.344;6.620;2023-05-01T10:27:23;18.50;53.00
20171;DHT22;10245;51.344;6.620;2023-05-01T10:29:51;18.40;55.30
20171;DHT22;10245;51.344;6.620;2023-05-01T10:32:16;18.60;56.80
20171;DHT22;10245;51.344;6.620;2023-05-01T10:34:42;18.90;56.50
20171;DHT22;10245;51.344;6.620;2023-05-01T10:37:12;18.90;54.30
20171;DHT22;10245;51.344;6.620;2023-05-01T10:39:40;18.50;54.40
20171;DHT22;10245;51.344;6.620;2023-05-01T10:42:04;18.70;55.10
20171;DHT22;10245;51.344;6.620;2023-05-01T10:44:32;18.50;53.90
20171;DHT22;10245;51.344;6.620;2023-05-01T10:46:58;18.80;53.50
20171;DHT22;10245;51.344;6.620;2023-05-01T10:49:21;19.00;57.60
20171;DHT22;10245;51.344;6.620;2023-05-01T10:51:58;18.90;51.90
20171;DHT22;10245;51.344;6.620;2023-05-01T10:54:25;18.80;54.90
20171;DHT22;10245;51.344;6.620;2023-05-01T10:56:50;18.80;56.00
20171;DHT22;10245;51.344;6.620;2023-05-01T10:59:13;19.10;55.00
20171;DHT22;10245;51.344;6.620;2023-05-01T11:01:38;19.20;53.40
20171;DHT22;10245;51.344;6.620;2023-05-01T11:04:04;19.20;53.50
20171;DHT22;10245;51.344;6.620;2023-05-01T11:06:30;19.40;55.30
20171;DHT22;10245;51.344;6.620;2023-05-01T11:08:54;19.70;53.60
20171;DHT22;10245;51.344;6.620;2023-05-01T11:11:46;19.50;52.70
20171;DHT22;10245;51.344;6.620;2023-05-01T11:14:11;19.20;54.60
20171;DHT22;10245;51.344;6.620;2023-05-01T11:16:41;19.20;53.90
20171;DHT22;10245;51.344;6.620;2023-05-01T11:19:09;19.50;54.90
20171;DHT22;10245;51.344;6.620;2023-05-01T11:21:35;19.50;52.70
20171;DHT22;10245;51.344;6.620;2023-05-01T11:23:59;19.60;53.00
20171;DHT22;10245;51.344;6.620;2023-05-01T11:26:24;19.80;52.80
20171;DHT22;10245;51.344;6.620;2023-05-01T11:28:47;19.90;53.20
20171;DHT22;10245;51.344;6.620;2023-05-01T11:31:16;19.70;53.30
20171;DHT22;10245;51.344;6.620;2023-05-01T11:33:40;19.80;50.90
20171;DHT22;10245;51.344;6.620;2023-05-01T11:36:05;19.80;53.10
20171;DHT22;10245;51.344;6.620;2023-05-01T11:38:28;19.90;50.80
20171;DHT22;10245;51.344;6.620;2023-05-01T11:40:53;20.20;53.10
20171;DHT22;10245;51.344;6.620;2023-05-01T11:43:18;20.50;48.00
20171;DHT22;10245;51.344;6.620;2023-05-01T11:45:41;19.90;48.70
20171;DHT22;10245;51.344;6.620;2023-05-01T11:48:13;20.00;54.10
20171;DHT22;10245;51.344;6.620;2023-05-01T11:50:38;20.50;49.80
20171;DHT22;10245;51.344;6.620;2023-05-01T11:53:03;19.90;50.00
20171;DHT22;10245;51.344;6.620;2023-05-01T11:55:30;20.00;46.40
20171;DHT22;10245;51.344;6.620;2023-05-01T11:57:54;20.00;49.80
20171;DHT22;10245;51.344;6.620;2023-05-01T12:00:26;20.60;49.50
20171;DHT22;10245;51.344;6.620;2023-05-01T12:02:58;20.80;44.30
20171;DHT22;10245;51.344;6.620;2023-05-01T12:05:23;20.50;46.00
20171;DHT22;10245;51.344;6.620;2023-05-01T12:07:47;20.10;45.60
20171;DHT22;10245;51.344;6.620;2023-05-01T12:10:12;20.50;44.10
20171;DHT22;10245;51.344;6.620;2023-05-01T12:12:35;20.60;46.50
20171;DHT22;10245;51.344;6.620;2023-05-01T12:14:58;20.90;47.20
20171;DHT22;10245;51.344;6.620;2023-05-01T12:17:22;21.10;48.40
20171;DHT22;10245;51.344;6.620;2023-05-01T12:19:46;20.90;43.80
20171;DHT22;10245;51.344;6.620;2023-05-01T12:22:10;20.90;47.10
20171;DHT22;10245;51.344;6.620;2023-05-01T12:24:35;21.00;51.90
20171;DHT22;10245;51.344;6.620;2023-05-01T12:27:00;21.40;44.70
20171;DHT22;10245;51.344;6.620;2023-05-01T12:29:24;20.70;44.30
20171;DHT22;10245;51.344;6.620;2023-05-01T12:31:48;20.70;46.00
20171;DHT22;10245;51.344;6.620;2023-05-01T12:34:11;20.70;46.90
20171;DHT22;10245;51.344;6.620;2023-05-01T12:36:35;20.30;49.30
20171;DHT22;10245;51.344;6.620;2023-05-01T12:39:00;20.70;49.10
20171;DHT22;10245;51.344;6.620;2023-05-01T12:41:32;20.40;43.10
20171;DHT22;10245;51.344;6.620;2023-05-01T12:43:57;20.00;43.60
20171;DHT22;10245;51.344;6.620;2023-05-01T12:46:21;20.00;47.40
20171;DHT22;10245;51.344;6.620;2023-05-01T12:48:44;20.20;46.10
20171;DHT22;10245;51.344;6.620;2023-05-01T12:51:17;20.20;43.70
20171;DHT22;10245;51.344;6.620;2023-05-01T12:53:43;20.60;45.00
20171;DHT22;10245;51.344;6.620;2023-05-01T12:56:06;20.50;46.90
20171;DHT22;10245;51.344;6.620;2023-05-01T12:58:36;20.60;44.60
20171;DHT22;10245;51.344;6.620;2023-05-01T13:01:01;20.80;45.90
20171;DHT22;10245;51.344;6.620;2023-05-01T13:03:26;20.70;42.90
20171;DHT22;10245;51.344;6.620;2023-05-01T13:05:56;20.50;44.20
20171;DHT22;10245;51.344;6.620;2023-05-01T13:08:25;19.80;44.70
20171;DHT22;10245;51.344;6.620;2023-05-01T13:10:49;19.90;47.30
20171;DHT22;10245;51.344;6.620;2023-05-01T13:13:23;20.10;48.10
20171;DHT22;10245;51.344;6.620;2023-05-01T13:15:50;20.00;48.40
20171;DHT22;10245;51.344;6.620;2023-05-01T13:18:15;19.60;48.30
20171;DHT22;10245;51.344;6.620;2023-05-01T13:20:39;19.70;49.80
20171;DHT22;10245;51.344;6.620;2023-05-01T13:23:09;19.60;49.50
20171;DHT22;10245;51.344;6.620;2023-05-01T13:25:33;19.30;48.20
20171;DHT22;10245;51.344;6.620;2023-05-01T13:27:56;19.50;48.60
20171;DHT22;10245;51.344;6.620;2023-05-01T13:30:30;19.40;48.30
20171;DHT22;10245;51.344;6.620;2023-05-01T13:32:54;19.20;49.30
20171;DHT22;10245;51.344;6.620;2023-05-01T13:35:23;19.40;50.50
20171;DHT22;10245;51.344;6.620;2023-05-01T13:37:48;19.20;47.90
20171;DHT22;10245;51.344;6.620;2023-05-01T13:40:11;19.00;48.00
20171;DHT22;10245;51.344;6.620;2023-05-01T13:42:38;19.00;50.30
20171;DHT22;10245;51.344;6.620;2023-05-01T13:45:04;18.90;48.90
20171;DHT22;10245;51.344;6.620;2023-05-01T13:47:28;19.10;48.20
20171;DHT22;10245;51.344;6.620;2023-05-01T13:49:52;19.00;47.50
20171;DHT22;10245;51.344;6.620;2023-05-01T13:52:18;18.90;47.90
20171;DHT22;10245;51.344;6.620;2023-05-01T13:54:42;19.10;49.40
20171;DHT22;10245;51.344;6.620;2023-05-01T13:57:05;19.30;47.60
20171;DHT22;10245;51.344;6.620;2023-05-01T13:59:37;19.20;46.10
20171;DHT22;10245;51.344;6.620;2023-05-01T14:02:01;19.40;48.60
20171;DHT22;10245;51.344;6.620;2023-05-01T14:04:40;19.20;47.80
20171;DHT22;10245;51.344;6.620;2023-05-01T14:07:03;18.50;48.70
20171;DHT22;10245;51.344;6.620;2023-05-01T14:09:27;18.40;50.80
20171;DHT22;10245;51.344;6.620;2023-05-01T14:11:51;17.80;51.20
20171;DHT22;10245;51.344;6.620;2023-05-01T14:14:15;17.70;52.40
20171;DHT22;10245;51.344;6.620;2023-05-01T14:16:40;17.70;51.90
20171;DHT22;10245;51.344;6.620;2023-05-01T14:19:04;17.60;52.90
20171;DHT22;10245;51.344;6.620;2023-05-01T14:21:28;17.50;52.30
20171;DHT22;10245;51.344;6.620;2023-05-01T14:23:53;17.50;53.00
20171;DHT22;10245;51.344;6.620;2023-05-01T14:26:19;17.80;53.10
20171;DHT22;10245;51.344;6.620;2023-05-01T14:28:45;17.60;53.00
20171;DHT22;10245;51.344;6.620;2023-05-01T14:31:15;17.60;54.20
20171;DHT22;10245;51.344;6.620;2023-05-01T14:33:41;17.30;53.50
20171;DHT22;10245;51.344;6.620;2023-05-01T14:36:04;17.10;53.50
20171;DHT22;10245;51.344;6.620;2023-05-01T14:38:28;17.00;56.30
20171;DHT22;10245;51.344;6.620;2023-05-01T14:40:59;17.00;56.70
20171;DHT22;10245;51.344;6.620;2023-05-01T14:43:26;17.00;56.00
20171;DHT22;10245;51.344;6.620;2023-05-01T14:45:49;17.10;57.30
20171;DHT22;10245;51.344;6.620;2023-05-01T14:48:22;17.00;58.00
20171;DHT22;10245;51.344;6.620;2023-05-01T14:50:46;16.60;58.70
20171;DHT22;10245;51.344;6.620;2023-05-01T14:53:09;16.70;57.90
20171;DHT22;10245;51.344;6.620;2023-05-01T14:55:33;16.70;58.60
20171;DHT22;10245;51.344;6.620;2023-05-01T14:57:58;17.00;60.00
20171;DHT22;10245;51.344;6.620;2023-05-01T15:00:23;16.70;57.80
20171;DHT22;10245;51.344;6.620;2023-05-01T15:02:47;16.80;60.60
20171;DHT22;10245;51.344;6.620;2023-05-01T15:05:10;16.60;59.30
20171;DHT22;10245;51.344;6.620;2023-05-01T15:07:34;16.60;59.50
20171;DHT22;10245;51.344;6.620;2023-05-01T15:09:57;16.60;60.30
20171;DHT22;10245;51.344;6.620;2023-05-01T15:12:21;16.50;62.60
20171;DHT22;10245;51.344;6.620;2023-05-01T15:14:44;16.40;62.00
20171;DHT22;10245;51.344;6.620;2023-05-01T15:17:09;16.20;62.20
20171;DHT22;10245;51.344;6.620;2023-05-01T15:19:32;16.20;62.90
20171;DHT22;10245;51.344;6.620;2023-05-01T15:21:55;15.90;62.80
20171;DHT22;10245;51.344;6.620;2023-05-01T15:24:19;15.80;63.10
20171;DHT22;10245;51.344;6.620;2023-05-01T15:26:43;15.90;63.10
20171;DHT22;10245;51.344;6.620;2023-05-01T15:29:07;15.90;63.70
20171;DHT22;10245;51.344;6.620;2023-05-01T15:31:30;15.80;63.80